Time;durP1;ratioP1;P1;durP2;ratioP2;P2;SDS_P1;SDS_P2;PMS_P1;PMS_P2;Temp;Humidity;BMP_temperature;BMP_pressure;BME280_temperature;BME280_humidity;BME280_pressure;Samples;Min_cycle;Max_cycle;Signal;HPM_P1;HPM_P2
2022/06/15 00:11:45;;;;;;;6.95;3.17;;;;;;;12.70;73.73;101924.09;10533267;28;20395;-73
2022/06/15 00:17:11;;;;;;;4.47;2.95;;;;;;;12.67;73.67;101924.03;10527111;28;20475;-74
2022/06/15 00:22:13;;;;;;;10.40;3.35;;;;;;;12.74;73.21;101924.22;10519820;28;20399;-73
2022/06/15 00:40:07;;;;;;;6.80;3.10;;;;;;;12.21;76.21;101937.94;10527179;28;20059;-75
2022/06/15 00:45:12;;;;;;;7.18;3.05;;;;;;;12.11;77.05;101941.00;10537162;28;20520;-74
2022/06/15 00:50:21;;;;;;;5.60;3.00;;;;;;;12.32;75.75;101930.56;10514832;28;20052;-75
2022/06/15 00:55:26;;;;;;;6.60;3.67;;;;;;;12.03;77.31;101938.13;10528695;28;20044;-74
2022/06/15 01:00:29;;;;;;;8.85;3.25;;;;;;;11.84;78.96;101932.25;10535380;28;20048;-74
2022/06/15 01:05:44;;;;;;;6.38;3.75;;;;;;;11.77;79.20;101934.56;10537847;28;20043;-75
2022/06/15 01:10:58;;;;;;;9.05;3.30;;;;;;;11.89;78.77;101933.31;10520666;28;20154;-75
2022/06/15 01:16:14;;;;;;;7.40;3.47;;;;;;;11.78;78.58;101936.31;10522575;28;20105;-75
2022/06/15 01:21:26;;;;;;;13.25;3.95;;;;;;;11.94;77.18;101938.66;10538472;28;20052;-74
2022/06/15 01:27:14;;;;;;;5.40;3.17;;;;;;;11.94;76.43;101927.44;10528975;28;20055;-74
2022/06/15 01:32:46;;;;;;;8.75;3.97;;;;;;;11.79;78.38;101923.47;10548964;28;20052;-74
2022/06/15 01:38:19;;;;;;;8.07;3.78;;;;;;;11.49;79.50;101923.19;10528023;28;20040;-74
2022/06/15 01:43:26;;;;;;;6.30;3.90;;;;;;;11.67;79.39;101921.28;10524057;28;20056;-74
2022/06/15 01:48:30;;;;;;;11.77;4.25;;;;;;;11.48;80.18;101918.84;10529076;28;20071;-73
2022/06/15 01:53:36;;;;;;;8.35;3.90;;;;;;;11.22;81.16;101913.53;10526600;28;20052;-74
2022/06/15 01:58:41;;;;;;;11.45;4.13;;;;;;;11.34;80.37;101919.19;10546097;28;20032;-75
2022/06/15 02:04:00;;;;;;;6.43;4.25;;;;;;;11.22;81.36;101917.03;10524986;28;20052;-75
2022/06/15 02:09:43;;;;;;;7.88;4.47;;;;;;;11.67;79.55;101907.53;10521845;28;20072;-76
2022/06/15 02:14:52;;;;;;;9.80;4.60;;;;;;;11.64;79.15;101902.25;10484829;28;20048;-76
2022/06/15 02:19:59;;;;;;;6.80;3.88;;;;;;;11.24;81.19;101906.75;10530382;28;20106;-74
2022/06/15 02:25:08;;;;;;;8.95;4.65;;;;;;;11.04;82.58;101899.13;10541804;28;20105;-74
2022/06/15 02:30:18;;;;;;;11.07;4.43;;;;;;;11.11;82.35;101890.81;10521392;28;20495;-74
2022/06/15 02:35:24;;;;;;;8.35;4.35;;;;;;;11.17;81.52;101889.28;10519600;28;20036;-75
2022/06/15 02:40:27;;;;;;;9.52;4.90;;;;;;;10.90;83.02;101889.94;10519808;28;20531;-76
2022/06/15 02:45:35;;;;;;;14.60;5.55;;;;;;;10.99;83.64;101889.44;10498670;28;20074;-74
2022/06/15 02:50:53;;;;;;;8.35;4.70;;;;;;;11.06;81.99;101887.13;10526202;28;20035;-74
2022/06/15 02:55:57;;;;;;;9.50;4.47;;;;;;;11.19;82.01;101878.19;10507117;28;20063;-75
2022/06/15 03:01:01;;;;;;;9.25;4.80;;;;;;;11.07;82.93;101888.91;10525947;28;20048;-74
2022/06/15 03:06:11;;;;;;;6.38;4.63;;;;;;;10.85;82.88;101879.44;10522788;28;20046;-75
2022/06/15 03:11:13;;;;;;;8.43;4.90;;;;;;;11.00;83.21;101886.91;10536488;28;20048;-74
2022/06/15 03:16:19;;;;;;;6.38;4.80;;;;;;;10.97;82.67;101879.06;10515854;28;20048;-74
2022/06/15 03:21:21;;;;;;;9.57;5.30;;;;;;;10.98;82.83;101877.34;10525643;28;20103;-75
2022/06/15 03:26:24;;;;;;;10.02;5.28;;;;;;;10.62;84.43;101873.34;10521520;28;20059;-76
2022/06/15 03:31:29;;;;;;;7.32;5.30;;;;;;;10.61;85.09;101876.75;10542498;28;20111;-76
2022/06/15 03:36:34;;;;;;;9.57;5.03;;;;;;;10.63;85.07;101869.94;10524060;28;20043;-75
2022/06/15 03:41:37;;;;;;;8.25;4.93;;;;;;;10.65;86.01;101873.47;10513462;28;20041;-75
2022/06/15 03:46:39;;;;;;;9.40;5.00;;;;;;;10.72;85.93;101875.47;10516244;28;20044;-75
2022/06/15 03:51:52;;;;;;;9.68;5.60;;;;;;;10.86;85.40;101878.63;10513932;28;20503;-75
2022/06/15 03:56:53;;;;;;;11.93;5.63;;;;;;;11.01;85.48;101878.34;10518482;28;20098;-75
2022/06/15 04:02:09;;;;;;;11.90;5.32;;;;;;;11.31;84.46;101875.22;10498129;28;20147;-75
2022/06/15 04:12:38;;;;;;;10.20;5.18;;;;;;;11.12;85.95;101881.34;10516021;28;20089;-75
2022/06/15 04:17:40;;;;;;;9.63;5.25;;;;;;;11.29;85.74;101882.00;10512249;28;20043;-76
2022/06/15 04:22:45;;;;;;;10.05;5.82;;;;;;;11.49;85.90;101885.34;10499572;28;20044;-75
2022/06/15 04:27:47;;;;;;;12.20;5.65;;;;;;;11.80;85.20;101885.63;10516546;28;20383;-75
2022/06/15 04:32:51;;;;;;;9.98;5.68;;;;;;;11.91;84.17;101884.31;10515970;28;20177;-76
2022/06/15 04:37:59;;;;;;;9.90;5.75;;;;;;;12.05;84.06;101893.47;10515590;28;20055;-75
2022/06/15 04:43:07;;;;;;;10.80;5.57;;;;;;;12.31;83.00;101888.34;10516456;28;20082;-76
2022/06/15 04:48:09;;;;;;;9.25;5.78;;;;;;;12.45;82.29;101880.19;10503329;28;20403;-76
2022/06/15 04:53:13;;;;;;;10.05;5.65;;;;;;;12.44;81.16;101884.44;10525042;28;20079;-76
2022/06/15 04:58:15;;;;;;;12.02;5.53;;;;;;;12.66;80.48;101888.66;10521296;28;20063;-75
2022/06/15 05:03:20;;;;;;;8.70;5.53;;;;;;;12.84;80.79;101884.91;10524315;28;20051;-76
2022/06/15 05:08:24;;;;;;;10.07;5.55;;;;;;;12.85;80.78;101889.22;10523107;28;20048;-76
2022/06/15 05:13:28;;;;;;;12.35;5.65;;;;;;;12.77;79.99;101888.13;10518054;28;20410;-76
2022/06/15 05:18:33;;;;;;;8.50;5.40;;;;;;;12.97;79.22;101892.22;10526717;28;20053;-76
2022/06/15 05:23:38;;;;;;;11.50;4.95;;;;;;;13.18;80.27;101891.13;10517550;28;20044;-77
2022/06/15 05:28:51;;;;;;;9.23;5.80;;;;;;;13.66;80.78;101896.91;10519262;28;20168;-76
2022/06/15 05:33:56;;;;;;;9.25;5.85;;;;;;;13.67;79.22;101885.69;10517577;28;20174;-76
2022/06/15 05:39:02;;;;;;;7.05;5.28;;;;;;;13.47;78.43;101889.47;10505645;28;20044;-76
2022/06/15 05:49:31;;;;;;;11.65;4.93;;;;;;;14.23;77.07;101880.31;10533362;28;20060;-76
2022/06/15 05:54:33;;;;;;;9.07;5.35;;;;;;;14.32;76.82;101887.50;10529588;28;20556;-76
2022/06/15 05:59:34;;;;;;;8.38;5.13;;;;;;;14.65;76.86;101876.22;10525279;28;20032;-76
2022/06/15 06:04:38;;;;;;;11.95;5.32;;;;;;;14.77;75.63;101883.44;10540583;28;20040;-76
2022/06/15 06:09:40;;;;;;;10.20;5.20;;;;;;;15.05;74.93;101874.59;10523608;28;20484;-77
2022/06/15 06:14:42;;;;;;;9.93;5.30;;;;;;;15.28;74.76;101869.06;10508554;28;20053;-76
2022/06/15 06:19:44;;;;;;;9.02;5.25;;;;;;;15.34;72.45;101869.19;10530390;28;20036;-76
2022/06/15 06:24:45;;;;;;;10.45;5.22;;;;;;;15.56;71.75;101878.31;10509896;28;20039;-77
2022/06/15 06:29:47;;;;;;;9.35;4.88;;;;;;;15.80;71.69;101874.44;10542973;28;20090;-76
2022/06/15 06:34:48;;;;;;;9.23;5.18;;;;;;;16.19;71.09;101873.50;10526528;28;20090;-76
2022/06/15 06:39:55;;;;;;;6.72;4.28;;;;;;;16.68;70.04;101872.59;10520049;28;20040;-74
2022/06/15 06:44:57;;;;;;;9.90;4.72;;;;;;;16.72;69.54;101870.03;10519160;28;20052;-74
2022/06/15 06:49:58;;;;;;;8.43;4.70;;;;;;;16.97;66.89;101875.66;10521619;28;20438;-75
2022/06/15 06:55:00;;;;;;;8.93;4.43;;;;;;;17.72;64.65;101873.19;10539670;28;20044;-74
2022/06/15 07:00:03;;;;;;;7.50;3.55;;;;;;;17.90;59.74;101882.09;10521745;28;20135;-76
2022/06/15 07:05:05;;;;;;;8.82;3.75;;;;;;;18.50;58.08;101881.84;10521072;28;20043;-74
2022/06/15 07:10:07;;;;;;;9.80;3.53;;;;;;;19.34;58.17;101878.94;10517152;28;20040;-75
2022/06/15 07:15:14;;;;;;;6.00;3.40;;;;;;;19.88;55.10;101883.53;10512499;28;20093;-75
2022/06/15 07:20:15;;;;;;;6.70;2.92;;;;;;;19.46;52.61;101885.97;10518854;28;20073;-75
2022/06/15 07:25:17;;;;;;;6.35;3.00;;;;;;;20.37;52.24;101893.22;10510068;28;20109;-74
2022/06/15 07:30:22;;;;;;;6.63;2.72;;;;;;;20.78;52.51;101891.50;10526998;28;20099;-74
2022/06/15 07:35:32;;;;;;;6.70;2.60;;;;;;;21.00;51.30;101900.19;10531968;28;20044;-74
2022/06/15 07:40:34;;;;;;;;;;;;;;;20.48;48.50;101901.06;10542179;28;20565;-75
2022/06/15 07:45:36;;;;;;;4.38;2.38;;;;;;;20.76;48.14;101895.84;10517768;28;19920;-76
2022/06/15 07:50:39;;;;;;;5.90;2.40;;;;;;;20.78;48.23;101899.34;10544356;28;20097;-75
2022/06/15 07:55:44;;;;;;;8.13;2.75;;;;;;;21.44;46.86;101900.97;10534707;28;20055;-75
2022/06/15 08:00:49;;;;;;;6.30;2.30;;;;;;;21.82;47.76;101902.56;10515879;28;20036;-74
2022/06/15 08:06:04;;;;;;;5.68;2.70;;;;;;;21.16;45.35;101898.44;10522892;28;20035;-75
2022/06/15 08:11:09;;;;;;;6.80;2.10;;;;;;;22.13;45.82;101899.78;10516673;28;20491;-74
2022/06/15 08:16:18;;;;;;;5.18;2.00;;;;;;;22.00;43.25;101896.34;10533503;28;20039;-74
2022/06/15 08:21:31;;;;;;;6.63;2.17;;;;;;;22.31;42.09;101895.25;10533130;28;20079;-74
2022/06/15 08:26:56;;;;;;;10.02;2.70;;;;;;;22.16;42.58;101891.88;10532626;28;20048;-74
2022/06/15 08:32:03;;;;;;;9.32;2.58;;;;;;;23.07;44.83;101886.75;10533676;28;20560;-75
2022/06/15 08:37:09;;;;;;;6.55;2.15;;;;;;;22.79;41.01;101882.66;10537918;28;20483;-74
2022/06/15 08:42:48;;;;;;;5.22;2.50;;;;;;;22.93;40.55;101885.16;10541859;28;20073;-74
2022/06/15 08:47:59;;;;;;;41.00;4.32;;;;;;;23.63;41.10;101884.38;10538252;28;20050;-75
2022/06/15 08:53:19;;;;;;;5.07;2.38;;;;;;;23.06;40.59;101885.88;10537758;28;20044;-74
2022/06/15 08:58:35;;;;;;;0.10;0.10;;;;;;;23.65;41.06;101890.47;10537718;28;20055;-74
2022/06/15 09:03:52;;;;;;;1.45;0.80;;;;;;;23.91;40.15;101882.22;10542893;28;20047;-75
2022/06/15 09:09:15;;;;;;;0.40;0.20;;;;;;;23.88;38.50;101889.28;10518787;28;20036;-75
2022/06/15 09:14:41;;;;;;;0.00;0.00;;;;;;;23.73;37.43;101893.84;10549159;28;20039;-75
2022/06/15 09:19:52;;;;;;;0.20;0.20;;;;;;;23.35;39.68;101895.22;10540287;28;20032;-75
2022/06/15 09:25:28;;;;;;;1.63;0.22;;;;;;;23.39;39.17;101894.31;10532384;28;20433;-75
2022/06/15 09:30:34;;;;;;;0.20;0.10;;;;;;;24.06;38.41;101896.94;10522599;28;20036;-75
2022/06/15 09:35:41;;;;;;;0.00;0.00;;;;;;;23.95;37.82;101888.31;10543167;28;20089;-74
2022/06/15 09:40:57;;;;;;;0.20;0.13;;;;;;;24.04;37.66;101892.59;10527071;28;20510;-75
2022/06/15 09:46:25;;;;;;;0.30;0.13;;;;;;;24.54;38.32;101883.03;10541546;28;20039;-74
2022/06/15 09:52:01;;;;;;;0.32;0.32;;;;;;;23.91;39.34;101873.47;10521904;28;20044;-75
2022/06/15 09:57:04;;;;;;;0.52;0.30;;;;;;;24.20;36.83;101880.06;10542416;28;20044;-75
2022/06/15 10:02:16;;;;;;;0.15;0.05;;;;;;;23.83;37.72;101875.31;10524873;28;20044;-74
2022/06/15 10:07:35;;;;;;;0.60;0.40;;;;;;;23.66;37.23;101871.16;10524975;28;20040;-74
2022/06/15 10:12:56;;;;;;;0.38;0.25;;;;;;;24.16;35.96;101873.97;10533415;28;20495;-76
2022/06/15 10:18:17;;;;;;;0.00;0.00;;;;;;;24.36;37.16;101868.41;10518679;28;20082;-75
2022/06/15 10:23:29;;;;;;;0.10;0.10;;;;;;;24.37;39.42;101862.25;10524756;28;20052;-74
2022/06/15 10:28:37;;;;;;;0.10;0.10;;;;;;;24.64;36.02;101862.66;10529360;28;20040;-75
2022/06/15 10:33:46;;;;;;;0.25;0.15;;;;;;;23.92;36.11;101854.16;10543097;28;20109;-74
2022/06/15 10:38:54;;;;;;;0.63;0.30;;;;;;;24.31;40.20;101841.25;10534450;28;20048;-75
2022/06/15 10:44:02;;;;;;;0.52;0.40;;;;;;;24.35;37.77;101839.47;10557893;28;20134;-75
2022/06/15 10:49:08;;;;;;;0.20;0.20;;;;;;;24.95;35.40;101845.41;10541779;28;20052;-75
2022/06/15 10:54:29;;;;;;;0.70;0.38;;;;;;;24.65;34.68;101831.88;10541518;28;20089;-76
2022/06/15 11:05:00;;;;;;;1.55;0.40;;;;;;;25.17;34.64;101830.06;10540246;28;20047;-75
2022/06/15 11:10:21;;;;;;;0.17;0.17;;;;;;;25.23;33.05;101836.97;10527813;28;20484;-74
2022/06/15 11:21:20;;;;;;;0.73;0.10;;;;;;;25.87;32.97;101831.19;10540873;28;20376;-75
2022/06/15 11:31:52;;;;;;;0.30;0.07;;;;;;;25.39;33.56;101817.31;10509555;28;20503;-75
2022/06/15 11:37:14;;;;;;;0.47;0.15;;;;;;;25.90;32.34;101813.50;10527600;28;20036;-74
2022/06/15 11:42:17;;;;;;;1.55;1.05;;;;;;;25.76;35.03;101818.25;10526156;28;20450;-75
2022/06/15 11:47:57;;;;;;;0.10;0.00;;;;;;;25.47;32.39;101825.06;10536101;28;20044;-74
2022/06/15 11:53:09;;;;;;;0.05;0.05;;;;;;;26.11;34.10;101809.50;10531145;28;20069;-75
2022/06/15 11:58:26;;;;;;;0.05;0.05;;;;;;;26.47;31.47;101805.09;10534224;28;20044;-74
2022/06/15 12:03:55;;;;;;;0.00;0.00;;;;;;;25.94;31.25;101804.63;10540196;28;20040;-74
2022/06/15 12:09:15;;;;;;;;;;;;;;;26.24;34.04;101799.50;10513931;28;20055;-74
2022/06/15 12:14:44;;;;;;;0.57;0.17;;;;;;;26.34;31.24;101801.91;10533781;28;19920;-75
2022/06/15 12:19:57;;;;;;;1.48;0.17;;;;;;;26.38;32.96;101795.63;10529349;28;20040;-75
2022/06/15 12:25:20;;;;;;;0.10;0.10;;;;;;;26.10;30.00;101796.38;10515928;28;20479;-74
2022/06/15 12:30:47;;;;;;;0.00;0.00;;;;;;;26.37;32.86;101794.75;10531709;28;20040;-74
2022/06/15 12:36:07;;;;;;;1.17;0.75;;;;;;;26.81;29.79;101794.50;10527159;28;20384;-75
2022/06/15 12:46:35;;;;;;;0.30;0.30;;;;;;;25.72;30.03;101800.75;10537443;28;20052;-74
2022/06/15 12:51:52;;;;;;;2.35;0.95;;;;;;;25.95;31.24;101784.34;10536619;28;20062;-75
2022/06/15 12:57:09;;;;;;;0.00;0.00;;;;;;;26.38;35.17;101780.66;10495679;28;20055;-74
2022/06/15 13:02:30;;;;;;;0.00;0.00;;;;;;;26.55;30.88;101782.81;10534836;28;20044;-75
2022/06/15 13:07:38;;;;;;;0.10;0.00;;;;;;;26.28;31.42;101785.31;10532780;28;20383;-76
2022/06/15 13:12:59;;;;;;;0.35;0.30;;;;;;;26.22;30.06;101784.59;10522191;28;20061;-75
2022/06/15 13:18:11;;;;;;;0.03;0.03;;;;;;;25.98;31.27;101777.22;10529373;28;20041;-75
2022/06/15 13:23:24;;;;;;;0.10;0.10;;;;;;;25.98;30.01;101774.59;10543441;28;20046;-75
2022/06/15 13:28:33;;;;;;;3.95;0.15;;;;;;;25.89;30.81;101780.09;10521756;28;20048;-76
2022/06/15 13:33:46;;;;;;;0.22;0.10;;;;;;;25.92;30.21;101777.38;10557252;28;20089;-75
2022/06/15 13:38:49;;;;;;;0.20;0.15;;;;;;;26.17;32.76;101771.53;10543393;28;20509;-74
2022/06/15 13:43:51;;;;;;;0.10;0.10;;;;;;;26.37;31.58;101772.75;10542407;28;20039;-74
2022/06/15 13:49:20;;;;;;;0.10;0.10;;;;;;;26.66;32.85;101779.03;10540691;28;20039;-74
2022/06/15 13:54:39;;;;;;;0.10;0.00;;;;;;;26.25;35.03;101774.81;10523347;28;20089;-74
2022/06/15 13:59:49;;;;;;;0.10;0.10;;;;;;;26.62;33.72;101769.47;10544659;28;20024;-75
2022/06/15 14:04:59;;;;;;;0.73;0.32;;;;;;;26.94;32.25;101772.97;10536928;28;20558;-75
2022/06/15 14:10:21;;;;;;;0.13;0.10;;;;;;;25.89;31.75;101764.25;10542166;28;20544;-75
2022/06/15 14:16:01;;;;;;;0.40;0.40;;;;;;;25.59;32.95;101760.59;10517169;28;20075;-75
2022/06/15 14:21:17;;;;;;;0.15;0.15;;;;;;;25.66;34.64;101763.03;10539155;28;20483;-75
2022/06/15 14:26:29;;;;;;;0.00;0.00;;;;;;;26.18;32.84;101762.66;10536446;28;20040;-75
2022/06/15 14:31:34;;;;;;;0.25;0.15;;;;;;;25.54;30.23;101755.41;10543178;28;20101;-76
2022/06/15 14:36:35;;;;;;;0.00;0.00;;;;;;;25.83;34.33;101745.06;10522722;28;20044;-75
2022/06/15 14:41:38;;;;;;;0.00;0.00;;;;;;;25.91;33.28;101757.16;10529614;28;20036;-75
2022/06/15 14:46:45;;;;;;;0.03;0.03;;;;;;;26.04;30.57;101755.09;10549941;28;20051;-75
2022/06/15 14:51:47;;;;;;;0.00;0.00;;;;;;;26.06;31.69;101755.03;10522760;28;20048;-75
2022/06/15 14:56:49;;;;;;;0.63;0.20;;;;;;;26.14;31.13;101755.75;10544384;28;20051;-75
2022/06/15 15:02:34;;;;;;;0.20;0.20;;;;;;;25.98;31.45;101748.19;10509359;28;20036;-75
2022/06/15 15:13:27;;;;;;;0.65;0.65;;;;;;;25.65;32.18;101748.09;10512037;28;20117;-75
2022/06/15 15:18:38;;;;;;;0.00;0.00;;;;;;;26.07;30.64;101749.75;10537782;28;20040;-75
2022/06/15 15:23:43;;;;;;;0.30;0.20;;;;;;;26.17;30.74;101745.13;10523301;28;20045;-75
2022/06/15 15:34:55;;;;;;;0.00;0.00;;;;;;;25.92;30.37;101729.88;10531717;28;20118;-75
2022/06/15 15:39:56;;;;;;;0.00;0.00;;;;;;;25.64;31.70;101724.41;10517276;28;20051;-75
2022/06/15 15:44:58;;;;;;;0.00;0.00;;;;;;;25.15;31.94;101732.53;10547044;28;20434;-76
2022/06/15 15:49:59;;;;;;;0.00;0.00;;;;;;;25.50;32.12;101738.81;10549732;28;20054;-75
2022/06/15 15:55:02;;;;;;;0.30;0.20;;;;;;;25.76;32.84;101728.50;10524734;28;20078;-75
2022/06/15 16:00:05;;;;;;;0.25;0.00;;;;;;;25.33;32.16;101733.88;10560737;28;20032;-76
2022/06/15 16:05:07;;;;;;;2.83;0.55;;;;;;;25.54;31.69;101733.47;10552442;28;20134;-75
2022/06/15 16:10:12;;;;;;;0.00;0.00;;;;;;;25.50;32.01;101727.41;10537725;28;20453;-75
2022/06/15 16:15:14;;;;;;;0.10;0.10;;;;;;;25.93;30.00;101726.34;10514483;28;20044;-75
2022/06/15 16:20:23;;;;;;;0.00;0.00;;;;;;;25.63;31.61;101723.56;10513852;28;20059;-75
2022/06/15 16:25:26;;;;;;;0.47;0.10;;;;;;;25.48;32.64;101723.91;10510158;28;20450;-75
2022/06/15 16:30:29;;;;;;;0.10;0.10;;;;;;;25.87;32.80;101723.84;10522874;28;20047;-75
2022/06/15 16:35:33;;;;;;;0.08;0.08;;;;;;;25.72;31.54;101716.31;10536514;28;20043;-75
2022/06/15 16:40:36;;;;;;;0.10;0.10;;;;;;;25.49;32.76;101702.75;10518340;28;20449;-75
2022/06/15 16:45:38;;;;;;;0.00;0.00;;;;;;;25.27;33.25;101696.22;10509004;28;20064;-75
2022/06/15 16:51:07;;;;;;;1.88;0.25;;;;;;;24.81;33.01;101700.75;10545795;28;20048;-75
2022/06/15 16:56:14;;;;;;;0.00;0.00;;;;;;;24.80;32.54;101696.38;10520208;28;20522;-75
2022/06/15 17:01:16;;;;;;;0.08;0.08;;;;;;;25.28;33.69;101701.47;10543773;28;20101;-75
2022/06/15 17:06:20;;;;;;;0.22;0.22;;;;;;;25.18;33.30;101711.34;10539828;28;20036;-75
2022/06/15 17:11:21;;;;;;;0.10;0.10;;;;;;;25.05;33.75;101707.25;10526315;28;20063;-76
2022/06/15 17:16:24;;;;;;;0.32;0.32;;;;;;;25.19;33.52;101706.97;10544509;28;20050;-75
2022/06/15 17:21:26;;;;;;;0.10;0.10;;;;;;;25.11;33.38;101706.28;10543360;28;20042;-75
2022/06/15 17:26:30;;;;;;;1.75;0.85;;;;;;;24.47;35.69;101702.28;10543707;28;20044;-75
2022/06/15 17:31:37;;;;;;;0.22;0.17;;;;;;;24.88;35.65;101697.09;10542734;28;20117;-75
2022/06/15 17:36:40;;;;;;;0.40;0.40;;;;;;;24.92;36.42;101696.13;10545783;28;20044;-75
2022/06/15 17:41:46;;;;;;;0.43;0.43;;;;;;;24.79;36.62;101699.91;10540922;28;20044;-75
2022/06/15 17:46:49;;;;;;;0.10;0.10;;;;;;;24.68;35.58;101708.94;10539116;28;20043;-75
2022/06/15 17:51:55;;;;;;;0.20;0.20;;;;;;;24.47;36.93;101706.66;10517045;28;20036;-75
2022/06/15 17:57:03;;;;;;;0.10;0.10;;;;;;;24.33;37.94;101709.59;10539109;28;20058;-75
2022/06/15 18:02:07;;;;;;;0.10;0.00;;;;;;;24.15;37.94;101710.81;10540498;28;20040;-76
2022/06/15 18:07:09;;;;;;;0.00;0.00;;;;;;;23.85;38.91;101697.25;10544048;28;20050;-75
2022/06/15 18:12:12;;;;;;;0.32;0.13;;;;;;;23.71;39.58;101701.00;10545636;28;20509;-75
2022/06/15 18:17:18;;;;;;;0.00;0.00;;;;;;;23.59;39.89;101712.56;10530844;28;20093;-75
2022/06/15 18:22:21;;;;;;;0.20;0.20;;;;;;;23.39;39.75;101720.75;10541684;28;20034;-75
2022/06/15 18:27:23;;;;;;;0.20;0.20;;;;;;;23.17;39.98;101719.28;10535088;28;20045;-74
2022/06/15 18:32:34;;;;;;;0.17;0.10;;;;;;;22.79;40.75;101724.13;10541268;28;20040;-75
2022/06/15 18:37:35;;;;;;;0.80;0.20;;;;;;;22.53;41.72;101730.59;10524961;28;20100;-75
2022/06/15 18:42:38;;;;;;;0.00;0.00;;;;;;;22.52;42.20;101722.72;10546024;28;20036;-75
2022/06/15 18:47:41;;;;;;;0.00;0.00;;;;;;;22.32;42.86;101713.25;10535785;28;20047;-74
2022/06/15 18:52:46;;;;;;;0.25;0.20;;;;;;;22.10;43.24;101712.63;10546945;28;20044;-75
2022/06/15 18:57:49;;;;;;;0.60;0.30;;;;;;;21.77;44.17;101715.53;10537115;28;20055;-74
2022/06/15 19:02:51;;;;;;;0.20;0.20;;;;;;;21.45;45.17;101721.81;10545838;28;20387;-75
2022/06/15 19:07:58;;;;;;;0.17;0.10;;;;;;;21.23;45.53;101734.16;10547730;28;20063;-74
2022/06/15 19:13:00;;;;;;;0.38;0.20;;;;;;;21.16;46.42;101737.69;10546817;28;20069;-74
2022/06/15 19:18:03;;;;;;;0.30;0.13;;;;;;;20.80;47.61;101739.59;10531649;28;20097;-75
2022/06/15 19:23:05;;;;;;;0.43;0.22;;;;;;;20.72;48.28;101721.28;10524211;28;20048;-74
2022/06/15 19:28:07;;;;;;;0.28;0.20;;;;;;;20.61;48.90;101727.41;10523253;28;20049;-74
2022/06/15 19:33:10;;;;;;;0.30;0.17;;;;;;;20.51;49.63;101737.91;10541337;28;20495;-74
2022/06/15 19:38:12;;;;;;;0.28;0.28;;;;;;;20.25;50.52;101736.22;10538654;28;20041;-74
2022/06/15 19:43:20;;;;;;;0.22;0.20;;;;;;;20.00;51.16;101740.56;10532148;28;20509;-75
2022/06/15 19:48:23;;;;;;;0.35;0.20;;;;;;;19.91;51.86;101726.66;10534789;28;20044;-74
2022/06/15 19:53:25;;;;;;;0.00;0.00;;;;;;;19.71;52.28;101720.47;10530241;28;20064;-74
2022/06/15 19:58:27;;;;;;;0.22;0.13;;;;;;;19.58;52.73;101738.78;10528413;28;20090;-74
2022/06/15 20:03:28;;;;;;;0.32;0.32;;;;;;;19.34;53.08;101761.34;10524032;28;20048;-75
2022/06/15 20:08:30;;;;;;;0.55;0.30;;;;;;;19.36;52.74;101778.78;10536697;28;20131;-73
2022/06/15 20:13:32;;;;;;;0.20;0.20;;;;;;;19.20;52.94;101776.13;10540238;28;20044;-74
2022/06/15 20:19:28;;;;;;;0.17;0.17;;;;;;;19.09;53.53;101783.03;10520881;28;20051;-74
2022/06/15 20:24:33;;;;;;;0.82;0.60;;;;;;;18.87;53.83;101812.50;10546727;28;20043;-74
2022/06/15 20:29:39;;;;;;;0.35;0.25;;;;;;;18.76;53.14;101821.13;10522588;28;20089;-74
2022/06/15 20:34:45;;;;;;;0.10;0.10;;;;;;;18.60;53.17;101823.63;10520247;28;20048;-74
2022/06/15 20:39:47;;;;;;;0.13;0.00;;;;;;;18.52;52.93;101825.28;10526316;28;20044;-74
2022/06/15 20:44:49;;;;;;;0.10;0.10;;;;;;;18.14;53.74;101818.91;10567785;28;20123;-74
2022/06/15 20:49:55;;;;;;;0.47;0.20;;;;;;;18.10;53.55;101811.03;10576651;28;20438;-75
2022/06/15 20:54:58;;;;;;;0.40;0.20;;;;;;;17.88;53.78;101831.66;10558050;28;20048;-75
2022/06/15 21:00:06;;;;;;;0.35;0.20;;;;;;;17.67;53.88;101848.81;10524552;28;20047;-73
2022/06/15 21:05:08;;;;;;;0.45;0.30;;;;;;;17.73;53.06;101838.44;10520382;28;20086;-74
2022/06/15 21:20:50;;;;;;;1.80;0.93;;;;;;;17.37;53.82;101854.50;10545909;28;20092;-74
2022/06/15 21:25:52;;;;;;;0.52;0.52;;;;;;;17.33;54.28;101852.72;10539602;28;20143;-74
2022/06/15 21:30:54;;;;;;;1.67;0.43;;;;;;;17.35;54.16;101864.06;10544191;28;20040;-73
2022/06/15 21:35:58;;;;;;;0.05;0.05;;;;;;;17.06;54.75;101860.19;10526437;28;20052;-74
2022/06/15 21:41:03;;;;;;;0.10;0.10;;;;;;;16.98;55.31;101871.34;10544322;28;20110;-74
2022/06/15 21:46:05;;;;;;;5.47;0.32;;;;;;;17.04;55.20;101861.88;10544246;28;20499;-73
2022/06/15 21:51:07;;;;;;;0.10;0.10;;;;;;;16.86;56.08;101869.41;10546429;28;20081;-73
2022/06/15 21:56:08;;;;;;;0.65;0.43;;;;;;;16.84;56.16;101871.09;10543469;28;20052;-74
2022/06/15 22:01:11;;;;;;;0.47;0.47;;;;;;;16.83;56.18;101879.75;10526586;28;20089;-74
2022/06/15 22:06:12;;;;;;;0.90;0.70;;;;;;;16.67;56.16;101876.03;10544615;28;20127;-73
2022/06/15 22:11:14;;;;;;;0.30;0.20;;;;;;;16.62;56.02;101881.16;10547540;28;20102;-74
2022/06/15 22:16:16;;;;;;;0.13;0.13;;;;;;;16.62;56.27;101888.97;10543693;28;20047;-74
2022/06/15 22:21:20;;;;;;;1.30;0.40;;;;;;;16.42;56.94;101886.03;10530185;28;20401;-73
2022/06/15 22:26:22;;;;;;;0.30;0.20;;;;;;;16.34;56.80;101893.72;10546018;28;20105;-73
2022/06/15 22:31:24;;;;;;;1.65;1.00;;;;;;;16.31;56.47;101894.50;10524415;28;20040;-74
2022/06/15 22:36:26;;;;;;;0.05;0.05;;;;;;;16.35;56.90;101900.63;10544241;28;20071;-73
2022/06/15 22:41:28;;;;;;;0.00;0.00;;;;;;;16.32;57.11;101900.59;10541318;28;20032;-74
2022/06/15 22:46:34;;;;;;;0.00;0.00;;;;;;;16.22;57.49;101888.25;10546131;28;20036;-73
2022/06/15 22:51:37;;;;;;;0.20;0.20;;;;;;;16.15;57.70;101897.69;10547947;28;20044;-73
2022/06/15 22:56:38;;;;;;;0.20;0.20;;;;;;;15.99;58.54;101901.69;10548091;28;20056;-74
2022/06/15 23:01:40;;;;;;;0.60;0.47;;;;;;;15.90;58.76;101896.34;10543121;28;20040;-73
2022/06/15 23:06:41;;;;;;;0.30;0.20;;;;;;;15.77;58.78;101896.03;10541622;28;20069;-73
2022/06/15 23:11:43;;;;;;;0.22;0.22;;;;;;;15.67;59.22;101878.53;10555659;28;20031;-73
2022/06/15 23:16:45;;;;;;;0.22;0.20;;;;;;;15.70;59.24;101873.38;10529517;28;20043;-73
2022/06/15 23:21:46;;;;;;;0.63;0.17;;;;;;;15.47;60.01;101863.41;10560237;28;20405;-73
2022/06/15 23:26:50;;;;;;;0.30;0.10;;;;;;;15.35;60.71;101886.53;10550658;28;20078;-74
2022/06/15 23:31:51;;;;;;;0.93;0.32;;;;;;;15.39;60.38;101899.59;10551070;28;20040;-74
2022/06/15 23:36:53;;;;;;;0.10;0.10;;;;;;;15.36;60.96;101893.47;10538475;28;20048;-73
2022/06/15 23:41:55;;;;;;;0.20;0.20;;;;;;;15.28;60.51;101879.44;10550991;28;20044;-74
2022/06/15 23:52:19;;;;;;;0.00;0.00;;;;;;;15.09;61.76;101889.38;10540512;28;20040;-74
2022/06/15 23:57:21;;;;;;;0.45;0.30;;;;;;;15.26;61.17;101886.31;10527652;28;20040;-73
